Terminal Aerodrome Forecast
Issued by NWS

Home | Current Version | Previous Version | Graphics & Text | Print | Product List | Glossary On
Versions: 1 2 3 4 5 6 7 8 9 10 11 12 13 14 15 16 17
000
FTUS43 KICT 202328
TAFSLN
TAF
KSLN 202328Z 2100/2124 12014KT P6SM OVC200
     FM210200 11010KT P6SM VCSH OVC130
     FM210400 10009KT P6SM -SHRA OVC060
     FM211100 10010KT P6SM -SHRA OVC015
     FM211300 10010KT 6SM -RA OVC008
     FM212100 06009KT P6SM VCSH OVC006=

USA.gov is the U.S. government's official web portal to all federal, state and local government web resources and services.